Time;durP1;ratioP1;P1;durP2;ratioP2;P2;SDS_P1;SDS_P2;PMS_P1;PMS_P2;Temp;Humidity;BMP_temperature;BMP_pressure;BME280_temperature;BME280_humidity;BME280_pressure;Samples;Min_cycle;Max_cycle;Signal;HPM_P1;HPM_P2
2022/11/06 00:02:13;;;;;;;7.10;2.63;;;12.20;99.90;;;;;;5025372;28;20331;-30
2022/11/06 00:04:47;;;;;;;6.43;2.80;;;12.20;99.90;;;;;;5026754;28;20668;-29
2022/11/06 00:07:14;;;;;;;6.73;2.80;;;12.20;99.90;;;;;;5025383;28;20243;-29
2022/11/06 00:09:41;;;;;;;7.73;3.03;;;12.20;99.90;;;;;;5026140;28;20639;-29
2022/11/06 00:12:08;;;;;;;7.07;2.50;;;12.30;99.90;;;;;;5025500;28;20258;-29
2022/11/06 00:14:37;;;;;;;7.83;2.73;;;12.30;99.90;;;;;;5022934;28;20206;-29
2022/11/06 00:17:04;;;;;;;4.37;2.50;;;12.30;99.90;;;;;;5025997;28;20287;-29
2022/11/06 00:19:32;;;;;;;5.33;2.40;;;12.30;99.90;;;;;;5024749;28;20734;-29
2022/11/06 00:21:59;;;;;;;6.97;2.30;;;12.30;99.90;;;;;;5024649;28;20211;-29
2022/11/06 00:24:26;;;;;;;9.33;2.43;;;12.30;99.90;;;;;;5025370;28;20217;-29
2022/11/06 00:26:56;;;;;;;6.27;2.50;;;12.30;99.90;;;;;;5022276;28;20216;-30
2022/11/06 00:29:23;;;;;;;7.20;2.80;;;12.30;99.90;;;;;;5005049;28;20212;-29
2022/11/06 00:31:50;;;;;;;7.53;2.53;;;12.40;99.90;;;;;;5005480;28;20230;-29
2022/11/06 00:34:17;;;;;;;8.00;2.63;;;12.40;99.90;;;;;;5021859;28;20633;-29
2022/11/06 00:36:45;;;;;;;4.80;2.53;;;12.40;99.90;;;;;;5024231;28;20772;-29
2022/11/06 00:39:12;;;;;;;5.43;2.40;;;12.40;99.90;;;;;;5024232;28;20240;-29
2022/11/06 00:41:42;;;;;;;7.67;2.50;;;12.40;99.90;;;;;;5024981;28;21067;-29
2022/11/06 00:44:09;;;;;;;3.90;2.17;;;12.50;99.90;;;;;;5025032;28;20599;-30
2022/11/06 00:46:36;;;;;;;11.37;2.90;;;12.50;99.90;;;;;;5024965;28;20512;-29
2022/11/06 00:49:04;;;;;;;5.73;2.57;;;12.50;99.90;;;;;;5025097;28;20235;-29
2022/11/06 00:51:38;;;;;;;4.70;2.20;;;12.50;99.90;;;;;;5023402;28;20591;-29
2022/11/06 00:54:08;;;;;;;7.37;2.53;;;12.50;99.90;;;;;;5025226;28;20747;-29
2022/11/06 00:56:35;;;;;;;6.03;2.33;;;12.50;99.90;;;;;;5024191;28;20212;-29
2022/11/06 00:59:06;;;;;;;6.43;2.27;;;12.60;99.90;;;;;;5025502;28;20201;-29
2022/11/06 01:01:39;;;;;;;9.70;2.37;;;12.60;99.90;;;;;;5025042;28;20363;-29
2022/11/06 01:04:14;;;;;;;5.03;2.13;;;12.60;99.90;;;;;;5025360;28;20186;-29
2022/11/06 01:06:46;;;;;;;8.93;2.47;;;12.60;99.90;;;;;;5024279;28;20216;-29
2022/11/06 01:09:15;;;;;;;9.03;2.70;;;12.60;99.90;;;;;;5025075;28;20666;-30
2022/11/06 01:11:45;;;;;;;9.70;2.60;;;12.70;99.90;;;;;;5022648;28;20667;-29
2022/11/06 01:14:32;;;;;;;8.43;2.73;;;12.70;99.90;;;;;;5022223;28;20204;-29
2022/11/06 01:17:02;;;;;;;7.03;2.70;;;12.70;99.90;;;;;;5024573;28;20197;-29
2022/11/06 01:19:29;;;;;;;6.57;2.23;;;12.70;99.90;;;;;;5024856;28;20687;-29
2022/11/06 01:21:56;;;;;;;9.13;3.00;;;12.70;99.90;;;;;;5022491;28;20647;-30
2022/11/06 01:24:26;;;;;;;5.83;1.90;;;12.80;99.90;;;;;;5023233;28;20215;-30
2022/11/06 01:26:54;;;;;;;6.93;2.00;;;12.80;99.90;;;;;;5024969;28;20205;-30
2022/11/06 01:29:41;;;;;;;7.53;2.33;;;12.80;99.90;;;;;;5024682;28;20196;-30
2022/11/06 01:32:08;;;;;;;8.13;2.10;;;12.80;99.90;;;;;;5028328;28;20603;-30
2022/11/06 01:34:36;;;;;;;8.40;2.37;;;12.80;99.90;;;;;;5028904;28;20211;-30
2022/11/06 01:37:05;;;;;;;9.70;2.27;;;12.80;99.90;;;;;;5026110;28;20205;-30
2022/11/06 01:39:39;;;;;;;11.07;2.30;;;12.80;99.90;;;;;;5028793;28;20672;-31
2022/11/06 01:42:06;;;;;;;6.13;2.40;;;12.80;99.90;;;;;;5027190;28;20551;-30
2022/11/06 01:44:41;;;;;;;6.17;1.93;;;12.80;99.90;;;;;;5026793;28;20216;-30
2022/11/06 01:47:23;;;;;;;4.83;2.17;;;12.80;99.90;;;;;;5028022;28;20189;-30
2022/11/06 01:49:54;;;;;;;3.73;1.87;;;12.90;99.90;;;;;;5027288;28;20231;-30
2022/11/06 01:52:23;;;;;;;8.30;2.20;;;12.90;99.90;;;;;;5026468;28;20232;-30
2022/11/06 01:54:54;;;;;;;7.67;2.20;;;12.90;99.90;;;;;;5028713;28;20203;-30
2022/11/06 01:57:23;;;;;;;5.23;2.43;;;12.90;99.90;;;;;;5025218;28;20413;-30
2022/11/06 01:59:54;;;;;;;6.40;2.10;;;12.90;99.90;;;;;;5025510;28;20283;-30
2022/11/06 02:02:21;;;;;;;5.73;2.57;;;12.90;99.90;;;;;;5029846;28;20212;-30
2022/11/06 02:04:49;;;;;;;3.50;1.97;;;12.90;99.90;;;;;;5037402;28;20231;-30
2022/11/06 02:07:18;;;;;;;4.50;2.10;;;12.90;99.90;;;;;;5028404;28;20208;-31
2022/11/06 02:09:45;;;;;;;6.03;2.40;;;12.90;99.90;;;;;;5040587;28;20230;-30
2022/11/06 02:12:17;;;;;;;6.97;2.20;;;13.00;99.90;;;;;;5026131;28;20232;-30
2022/11/06 02:14:59;;;;;;;6.27;1.90;;;13.00;99.90;;;;;;5027226;28;20204;-30
2022/11/06 02:17:40;;;;;;;7.30;2.90;;;13.00;99.90;;;;;;5037461;28;20211;-30
2022/11/06 02:20:07;;;;;;;8.27;2.37;;;13.00;99.90;;;;;;5047863;28;20283;-30
2022/11/06 02:22:59;;;;;;;7.97;2.00;;;13.00;99.90;;;;;;5036950;28;20753;-30
2022/11/06 02:25:46;;;;;;;8.40;2.23;;;13.00;99.90;;;;;;5026974;28;20703;-30
2022/11/06 02:28:27;;;;;;;5.53;2.23;;;13.00;99.90;;;;;;5020059;28;20217;-30
2022/11/06 02:30:58;;;;;;;3.43;1.80;;;13.00;99.90;;;;;;5028194;28;20197;-30
2022/11/06 02:33:36;;;;;;;5.70;1.90;;;13.00;99.90;;;;;;5026430;28;20232;-30
2022/11/06 02:36:18;;;;;;;4.87;1.90;;;13.00;99.90;;;;;;5024032;28;20188;-30
2022/11/06 02:38:57;;;;;;;6.67;2.00;;;13.10;99.90;;;;;;5027941;28;20893;-30
2022/11/06 02:41:30;;;;;;;4.77;1.80;;;13.10;99.90;;;;;;5027081;28;20203;-30
2022/11/06 02:44:01;;;;;;;4.73;2.00;;;13.10;99.90;;;;;;5026539;28;20292;-30
2022/11/06 02:46:38;;;;;;;4.73;1.97;;;13.10;99.90;;;;;;5027746;28;20584;-30
2022/11/06 02:49:15;;;;;;;5.13;1.90;;;13.10;99.90;;;;;;5027692;28;20243;-30
2022/11/06 02:51:52;;;;;;;6.10;2.30;;;13.10;99.90;;;;;;5026263;28;21017;-30
2022/11/06 02:54:22;;;;;;;5.10;2.10;;;13.10;99.90;;;;;;5027795;28;20192;-30
2022/11/06 02:56:54;;;;;;;4.07;1.93;;;13.10;99.90;;;;;;5026470;28;20766;-30
2022/11/06 02:59:44;;;;;;;5.43;2.57;;;13.10;99.90;;;;;;5027542;28;20200;-30
2022/11/06 03:02:23;;;;;;;5.00;1.90;;;13.10;99.90;;;;;;5027255;28;20582;-30
2022/11/06 03:05:08;;;;;;;6.43;2.13;;;13.10;99.90;;;;;;5024943;28;20205;-30
2022/11/06 03:07:49;;;;;;;6.70;2.00;;;13.10;99.90;;;;;;5025488;28;20283;-30
2022/11/06 03:10:17;;;;;;;7.67;2.13;;;13.00;99.90;;;;;;5027323;28;20866;-30
2022/11/06 03:12:59;;;;;;;5.50;1.90;;;13.00;99.90;;;;;;5023250;28;20614;-30
2022/11/06 03:15:45;;;;;;;6.50;2.37;;;13.00;99.90;;;;;;5026523;28;20320;-30
2022/11/06 03:18:19;;;;;;;7.60;1.97;;;13.00;99.90;;;;;;5025635;28;20890;-30
2022/11/06 03:21:25;;;;;;;5.70;1.77;;;13.00;99.90;;;;;;5026293;28;20212;-30
2022/11/06 03:24:00;;;;;;;6.70;2.23;;;13.00;99.90;;;;;;4983811;28;20209;-30
2022/11/06 03:26:35;;;;;;;7.10;2.13;;;13.00;99.90;;;;;;5002345;28;20209;-29
2022/11/06 03:29:09;;;;;;;6.73;1.80;;;13.00;99.90;;;;;;5025728;28;20574;-29
2022/11/06 03:31:45;;;;;;;5.77;2.30;;;13.00;99.90;;;;;;5026543;28;20617;-29
2022/11/06 03:34:18;;;;;;;7.67;1.87;;;13.00;99.90;;;;;;5026499;28;20217;-29
2022/11/06 03:36:51;;;;;;;5.13;1.90;;;13.10;99.90;;;;;;5024442;28;20204;-29
2022/11/06 03:39:24;;;;;;;4.33;1.63;;;13.00;99.90;;;;;;5026889;28;20276;-28
2022/11/06 03:42:06;;;;;;;5.13;2.00;;;13.10;99.90;;;;;;5025310;28;20443;-29
2022/11/06 03:44:38;;;;;;;3.70;2.30;;;13.10;99.90;;;;;;5026117;28;20177;-29
2022/11/06 03:47:21;;;;;;;4.13;1.80;;;13.10;99.90;;;;;;5026731;28;20552;-29
2022/11/06 03:50:16;;;;;;;4.50;1.83;;;13.10;99.90;;;;;;5026131;28;20699;-29
2022/11/06 03:53:01;;;;;;;4.50;2.13;;;13.10;99.90;;;;;;5023852;28;20308;-29
2022/11/06 03:55:37;;;;;;;4.23;1.60;;;13.10;99.90;;;;;;5025623;28;20196;-29
2022/11/06 03:58:09;;;;;;;5.70;2.00;;;13.10;99.90;;;;;;5024932;28;20212;-29
2022/11/06 04:00:40;;;;;;;4.47;2.00;;;13.10;99.90;;;;;;5025788;28;20789;-29
2022/11/06 04:03:19;;;;;;;7.03;2.07;;;13.10;99.90;;;;;;5026389;28;20646;-29
2022/11/06 04:06:29;;;;;;;4.93;1.83;;;13.10;99.90;;;;;;5024631;28;20204;-29
2022/11/06 04:14:39;;;;;;;5.37;2.03;;;13.00;99.90;;;;;;5025637;28;20220;-29
2022/11/06 04:17:09;;;;;;;3.93;1.70;;;13.00;99.90;;;;;;5026371;28;20208;-29
2022/11/06 04:19:50;;;;;;;6.07;1.87;;;13.10;99.90;;;;;;5023635;28;20211;-29
2022/11/06 04:22:38;;;;;;;3.80;1.90;;;13.00;99.90;;;;;;5023662;28;20201;-29
2022/11/06 04:28:32;;;;;;;6.80;2.27;;;13.00;99.90;;;;;;5025976;28;20296;-29
2022/11/06 04:31:11;;;;;;;7.60;2.03;;;13.00;99.90;;;;;;5024480;28;20205;-29
2022/11/06 04:34:08;;;;;;;4.23;2.10;;;13.00;99.90;;;;;;5024842;28;20212;-29
2022/11/06 04:37:02;;;;;;;5.50;2.07;;;13.00;99.90;;;;;;5022905;28;20215;-29
2022/11/06 04:39:39;;;;;;;3.40;1.80;;;13.00;99.90;;;;;;5024968;28;20686;-29
2022/11/06 04:42:18;;;;;;;6.53;2.40;;;12.90;99.90;;;;;;5024826;28;20197;-29
2022/11/06 04:44:51;;;;;;;5.23;1.90;;;12.90;99.90;;;;;;5025715;28;20189;-29
2022/11/06 04:47:21;;;;;;;4.87;2.20;;;12.90;99.90;;;;;;5025431;28;20617;-29
2022/11/06 04:49:52;;;;;;;5.07;2.10;;;12.90;99.90;;;;;;5026446;28;20185;-29
2022/11/06 04:52:24;;;;;;;4.97;2.00;;;12.90;99.90;;;;;;5025176;28;20189;-28
2022/11/06 04:54:53;;;;;;;7.00;2.63;;;12.80;99.90;;;;;;5024129;28;20300;-28
2022/11/06 04:57:25;;;;;;;4.80;1.90;;;12.80;99.90;;;;;;5022418;28;20205;-29
2022/11/06 04:59:52;;;;;;;5.73;2.00;;;12.80;99.90;;;;;;5025397;28;20196;-29
2022/11/06 05:02:20;;;;;;;5.47;2.20;;;12.80;99.90;;;;;;5023646;28;20224;-28
2022/11/06 05:04:50;;;;;;;6.53;2.17;;;12.80;99.90;;;;;;5027021;28;20595;-29
2022/11/06 05:07:17;;;;;;;4.27;2.13;;;12.80;99.90;;;;;;5027960;28;20205;-29
2022/11/06 05:09:46;;;;;;;5.97;2.10;;;12.80;99.90;;;;;;5028889;28;20209;-29
2022/11/06 05:12:13;;;;;;;7.13;1.90;;;12.80;99.90;;;;;;5026356;28;20614;-29
2022/11/06 05:14:40;;;;;;;3.63;1.83;;;12.70;99.90;;;;;;5027502;28;20227;-29
2022/11/06 05:17:07;;;;;;;5.10;2.07;;;12.70;99.90;;;;;;5028847;28;20200;-29
2022/11/06 05:19:35;;;;;;;4.87;1.90;;;12.70;99.90;;;;;;5028873;28;20216;-29
2022/11/06 05:24:48;;;;;;;3.17;2.07;;;12.70;99.90;;;;;;5028158;28;20212;-29
2022/11/06 05:27:15;;;;;;;3.43;1.90;;;12.70;99.90;;;;;;5028492;28;20294;-29
2022/11/06 05:29:44;;;;;;;4.97;2.53;;;12.70;99.90;;;;;;5029011;28;20551;-29
2022/11/06 05:32:11;;;;;;;6.67;2.07;;;12.60;99.90;;;;;;5028993;28;20621;-29
2022/11/06 05:34:41;;;;;;;5.07;2.30;;;12.60;99.90;;;;;;5028604;28;20642;-29
2022/11/06 05:37:08;;;;;;;5.03;2.20;;;12.60;99.90;;;;;;5023533;28;20438;-29
2022/11/06 05:39:35;;;;;;;5.87;2.13;;;12.70;99.90;;;;;;5024117;28;20625;-29
2022/11/06 05:42:08;;;;;;;6.57;1.80;;;12.70;99.90;;;;;;5026195;28;20256;-29
2022/11/06 05:44:36;;;;;;;6.43;2.20;;;12.70;99.90;;;;;;5024781;28;20551;-29
2022/11/06 05:47:03;;;;;;;6.07;2.33;;;12.70;99.90;;;;;;5026188;28;20213;-29
2022/11/06 05:49:31;;;;;;;5.33;2.43;;;12.70;99.90;;;;;;5028662;28;20331;-29
2022/11/06 05:51:58;;;;;;;5.00;2.40;;;12.70;99.90;;;;;;5027807;28;20205;-29
2022/11/06 05:54:25;;;;;;;7.13;2.10;;;12.70;99.90;;;;;;5028855;28;20217;-29
2022/11/06 05:56:55;;;;;;;3.60;2.00;;;12.80;99.90;;;;;;5028671;28;20227;-29
2022/11/06 05:59:24;;;;;;;6.63;2.53;;;12.80;99.90;;;;;;5025664;28;20201;-29
2022/11/06 06:01:51;;;;;;;6.83;2.13;;;12.80;99.90;;;;;;5027624;28;20556;-29
2022/11/06 06:04:21;;;;;;;4.90;1.90;;;12.80;99.90;;;;;;5021874;28;20695;-29
2022/11/06 06:06:48;;;;;;;5.37;2.00;;;12.80;99.90;;;;;;5014215;28;20296;-29
2022/11/06 06:09:16;;;;;;;3.63;1.83;;;12.80;99.90;;;;;;5021658;28;20201;-29
2022/11/06 06:11:43;;;;;;;5.77;1.50;;;12.90;99.90;;;;;;5020330;28;20232;-29
2022/11/06 06:14:12;;;;;;;4.97;2.13;;;12.90;99.90;;;;;;5027755;28;20229;-29
2022/11/06 06:16:39;;;;;;;4.80;2.03;;;12.90;99.90;;;;;;5026683;28;20193;-29
2022/11/06 06:19:06;;;;;;;6.40;2.10;;;12.90;99.90;;;;;;5013762;28;20193;-29
2022/11/06 06:21:35;;;;;;;4.33;1.83;;;12.90;99.90;;;;;;5027101;28;20240;-29
2022/11/06 06:24:03;;;;;;;8.07;1.90;;;12.90;99.90;;;;;;5027615;28;20209;-29
2022/11/06 06:26:30;;;;;;;5.67;1.80;;;12.90;99.90;;;;;;5027331;28;20739;-29
2022/11/06 06:28:57;;;;;;;2.80;1.50;;;13.00;99.90;;;;;;5026242;28;20207;-29
2022/11/06 06:31:27;;;;;;;5.53;1.70;;;13.00;99.90;;;;;;5027648;28;20317;-29
2022/11/06 06:33:54;;;;;;;3.50;1.80;;;13.00;99.90;;;;;;5027468;28;20213;-29
2022/11/06 06:36:21;;;;;;;6.00;1.80;;;13.00;99.90;;;;;;5015719;28;20663;-29
2022/11/06 06:38:51;;;;;;;6.10;2.10;;;13.00;99.90;;;;;;5012669;28;20231;-29
2022/11/06 06:41:18;;;;;;;5.63;1.90;;;13.00;99.90;;;;;;5037987;28;20705;-29
2022/11/06 06:43:49;;;;;;;5.03;2.10;;;13.00;99.90;;;;;;5044517;28;20197;-29
2022/11/06 06:46:18;;;;;;;4.77;1.80;;;13.00;99.90;;;;;;5032088;28;20236;-29
2022/11/06 06:48:46;;;;;;;3.70;1.60;;;13.10;99.90;;;;;;5032478;28;20237;-29
2022/11/06 06:51:14;;;;;;;4.73;2.00;;;13.10;99.90;;;;;;5024321;28;20208;-29
2022/11/06 06:53:49;;;;;;;3.50;1.60;;;13.10;99.90;;;;;;5024057;28;20219;-29
2022/11/06 06:56:16;;;;;;;4.07;1.90;;;13.10;99.90;;;;;;5026753;28;20200;-28
2022/11/06 06:58:43;;;;;;;5.07;1.50;;;13.10;99.90;;;;;;5040726;28;20211;-28
2022/11/06 07:01:10;;;;;;;5.17;1.70;;;13.10;99.90;;;;;;5040796;28;20291;-29
2022/11/06 07:03:40;;;;;;;7.03;1.80;;;13.10;99.90;;;;;;5044949;28;20234;-28
2022/11/06 07:06:07;;;;;;;3.30;1.43;;;13.10;99.90;;;;;;5024415;28;20209;-28
2022/11/06 07:08:35;;;;;;;5.27;1.63;;;13.20;99.90;;;;;;5039945;28;20362;-29
2022/11/06 07:11:06;;;;;;;5.93;1.77;;;13.20;99.90;;;;;;5030786;28;20196;-29
2022/11/06 07:13:34;;;;;;;3.80;1.90;;;13.20;99.90;;;;;;5041179;28;20230;-29
2022/11/06 07:16:09;;;;;;;4.80;1.90;;;13.30;99.90;;;;;;5008804;28;20212;-28
2022/11/06 07:18:38;;;;;;;2.90;1.50;;;13.30;99.90;;;;;;5036447;28;20210;-29
2022/11/06 07:21:09;;;;;;;4.23;1.40;;;13.30;99.90;;;;;;5038770;28;20204;-29
2022/11/06 07:23:37;;;;;;;2.30;1.20;;;13.30;99.90;;;;;;5037691;28;20208;-29
2022/11/06 07:26:05;;;;;;;4.07;1.30;;;13.30;99.90;;;;;;5039960;28;20286;-29
2022/11/06 07:28:32;;;;;;;5.13;1.53;;;13.30;99.90;;;;;;5016692;28;20201;-29
2022/11/06 07:31:02;;;;;;;4.13;1.57;;;13.40;99.90;;;;;;5025824;28;20205;-29
2022/11/06 07:33:29;;;;;;;6.23;1.73;;;13.40;99.90;;;;;;5025868;28;20957;-29
2022/11/06 07:36:07;;;;;;;3.80;1.60;;;13.40;99.90;;;;;;5033440;28;20208;-29
2022/11/06 07:38:39;;;;;;;2.00;1.33;;;13.40;99.90;;;;;;5034615;28;20281;-28
2022/11/06 07:41:10;;;;;;;5.83;1.87;;;13.40;99.90;;;;;;5027433;28;20666;-28
2022/11/06 07:43:38;;;;;;;4.53;1.70;;;13.50;99.90;;;;;;5040835;28;20236;-28
2022/11/06 07:46:07;;;;;;;3.63;1.60;;;13.50;99.90;;;;;;5034027;28;20208;-29
2022/11/06 07:48:35;;;;;;;3.83;1.50;;;13.50;99.90;;;;;;5026190;28;20248;-29
2022/11/06 07:51:04;;;;;;;3.50;1.43;;;13.50;99.90;;;;;;5014915;28;20311;-28
2022/11/06 07:53:34;;;;;;;2.93;1.57;;;13.50;99.90;;;;;;5013698;28;20654;-29
2022/11/06 07:56:02;;;;;;;5.97;1.30;;;13.60;99.90;;;;;;5024658;28;20201;-29
2022/11/06 07:58:29;;;;;;;2.83;1.50;;;13.50;99.90;;;;;;5025660;28;20216;-29
2022/11/06 08:00:59;;;;;;;6.07;1.40;;;13.60;99.90;;;;;;5017565;28;20212;-29
2022/11/06 08:03:28;;;;;;;6.17;1.70;;;13.60;99.90;;;;;;5031594;28;20305;-29
2022/11/06 08:05:57;;;;;;;5.23;1.60;;;13.60;99.90;;;;;;5022045;28;20623;-28
2022/11/06 08:08:24;;;;;;;4.30;1.50;;;13.60;99.90;;;;;;5025666;28;20207;-29
2022/11/06 08:10:52;;;;;;;5.73;1.57;;;13.60;99.90;;;;;;5036798;28;20224;-28
2022/11/06 08:13:19;;;;;;;5.57;1.53;;;13.60;99.90;;;;;;5044321;28;20625;-29
2022/11/06 08:15:47;;;;;;;7.17;1.73;;;13.70;99.90;;;;;;5023718;28;20211;-28
2022/11/06 08:18:14;;;;;;;5.20;2.00;;;13.70;99.90;;;;;;5029203;28;20224;-29
2022/11/06 08:20:42;;;;;;;4.87;1.60;;;13.70;99.90;;;;;;5013027;28;20200;-28
2022/11/06 08:23:11;;;;;;;4.23;1.33;;;13.80;99.90;;;;;;5024064;28;20193;-29
2022/11/06 08:25:39;;;;;;;3.97;1.30;;;13.80;99.90;;;;;;5023647;28;20208;-28
2022/11/06 08:28:06;;;;;;;3.93;1.60;;;13.80;99.90;;;;;;5037258;28;20312;-29
2022/11/06 08:30:33;;;;;;;4.33;1.63;;;13.80;99.90;;;;;;5032520;28;20209;-28
2022/11/06 08:33:07;;;;;;;3.90;1.60;;;13.80;99.90;;;;;;5019567;28;20206;-31
2022/11/06 08:35:36;;;;;;;3.50;1.50;;;13.80;99.90;;;;;;5010594;28;20657;-29
2022/11/06 08:38:03;;;;;;;4.20;1.47;;;13.80;99.90;;;;;;5021110;28;20740;-29
2022/11/06 08:40:33;;;;;;;2.30;1.13;;;13.80;99.90;;;;;;5040134;28;20193;-29
2022/11/06 08:43:02;;;;;;;4.10;1.63;;;13.80;99.90;;;;;;5042735;28;20658;-29
2022/11/06 08:45:30;;;;;;;3.23;1.73;;;13.80;99.90;;;;;;5029602;28;20977;-29
2022/11/06 08:48:01;;;;;;;3.27;1.47;;;13.80;99.90;;;;;;5026673;28;20660;-29
2022/11/06 08:50:31;;;;;;;5.07;1.63;;;13.90;99.90;;;;;;5034663;28;20337;-29
2022/11/06 08:53:05;;;;;;;5.67;1.77;;;13.90;99.90;;;;;;5029938;28;20305;-29
2022/11/06 08:55:34;;;;;;;4.90;1.83;;;13.90;99.90;;;;;;5022276;28;20363;-29
2022/11/06 08:58:02;;;;;;;7.03;1.80;;;13.90;99.90;;;;;;5031448;28;20201;-29
2022/11/06 09:00:32;;;;;;;5.50;1.70;;;14.00;99.90;;;;;;5044883;28;20789;-29
2022/11/06 09:03:01;;;;;;;4.93;1.87;;;14.00;99.90;;;;;;5032746;28;20224;-29
2022/11/06 09:05:31;;;;;;;4.13;1.30;;;13.90;99.90;;;;;;5029267;28;20314;-29
2022/11/06 09:07:59;;;;;;;5.10;1.77;;;14.00;99.90;;;;;;5035498;28;20196;-29
2022/11/06 09:10:27;;;;;;;4.47;1.70;;;14.00;99.90;;;;;;5020201;28;20209;-29
2022/11/06 09:12:58;;;;;;;5.77;1.77;;;14.00;99.90;;;;;;5020824;28;21112;-29
2022/11/06 09:15:29;;;;;;;4.60;1.80;;;14.00;99.90;;;;;;5021226;28;20225;-29
2022/11/06 09:17:57;;;;;;;3.93;1.70;;;14.00;99.90;;;;;;5025639;28;20672;-29
2022/11/06 09:20:25;;;;;;;3.60;1.60;;;14.00;99.90;;;;;;5025273;28;20205;-29
2022/11/06 09:22:53;;;;;;;7.77;2.20;;;14.00;99.90;;;;;;5025565;28;20210;-29
2022/11/06 09:25:20;;;;;;;5.70;2.00;;;14.00;99.90;;;;;;5023032;28;20204;-29
2022/11/06 09:27:52;;;;;;;4.70;1.73;;;14.00;99.90;;;;;;5024378;28;20225;-29
2022/11/06 09:30:27;;;;;;;7.20;2.13;;;14.10;99.90;;;;;;5024987;28;20209;-29
2022/11/06 09:32:59;;;;;;;7.90;1.73;;;14.10;99.90;;;;;;5025167;28;20335;-29
2022/11/06 09:35:28;;;;;;;6.07;1.43;;;14.10;99.90;;;;;;5024189;28;20239;-29
2022/11/06 09:38:25;;;;;;;4.03;1.67;;;14.20;99.90;;;;;;5025138;28;20305;-29
2022/11/06 09:40:58;;;;;;;4.07;1.80;;;14.20;99.90;;;;;;5023133;28;20544;-29
2022/11/06 09:43:43;;;;;;;4.43;1.60;;;14.30;99.90;;;;;;5022874;28;20197;-29
2022/11/06 09:46:36;;;;;;;3.53;1.33;;;14.30;99.90;;;;;;5025282;28;20231;-29
2022/11/06 09:49:07;;;;;;;6.27;1.73;;;14.30;99.90;;;;;;5025096;28;20770;-29
2022/11/06 09:51:56;;;;;;;5.80;1.83;;;14.40;99.90;;;;;;5022995;28;20627;-29
2022/11/06 09:54:28;;;;;;;6.17;1.80;;;14.40;99.90;;;;;;5010382;28;20225;-29
2022/11/06 09:57:08;;;;;;;5.97;1.50;;;14.40;99.90;;;;;;5009174;28;20239;-29
2022/11/06 09:59:40;;;;;;;5.67;1.73;;;14.40;99.90;;;;;;5009950;28;20194;-29
2022/11/06 10:02:27;;;;;;;3.13;2.03;;;14.50;99.90;;;;;;5031122;28;20234;-29
2022/11/06 10:05:10;;;;;;;3.33;1.60;;;14.50;99.90;;;;;;5022473;28;20197;-29
2022/11/06 10:07:41;;;;;;;4.63;1.67;;;14.50;99.90;;;;;;5024037;28;20224;-29
2022/11/06 10:10:17;;;;;;;6.93;1.73;;;14.40;99.90;;;;;;5009422;28;20204;-29
2022/11/06 10:13:24;;;;;;;5.93;1.80;;;14.50;99.90;;;;;;5024937;28;20201;-28
2022/11/06 10:16:00;;;;;;;5.83;1.67;;;14.50;99.90;;;;;;5009430;28;20223;-28
2022/11/06 10:18:52;;;;;;;5.50;1.90;;;14.40;99.90;;;;;;5009155;28;20231;-28
2022/11/06 10:21:24;;;;;;;5.23;1.53;;;14.50;99.90;;;;;;5024044;28;20215;-31
2022/11/06 10:23:56;;;;;;;6.33;1.77;;;14.50;99.90;;;;;;5025541;28;20220;-31
2022/11/06 10:26:35;;;;;;;2.80;1.40;;;14.50;99.90;;;;;;5037139;28;20298;-31
2022/11/06 10:29:23;;;;;;;4.93;1.40;;;14.50;99.90;;;;;;5010651;28;20300;-28
2022/11/06 10:32:31;;;;;;;3.07;1.43;;;14.50;99.90;;;;;;5015763;28;20227;-29
2022/11/06 10:35:07;;;;;;;4.20;1.70;;;14.50;99.90;;;;;;5019918;28;20240;-29
2022/11/06 10:37:43;;;;;;;3.07;1.50;;;14.50;99.90;;;;;;5025849;28;20207;-28
2022/11/06 10:40:17;;;;;;;5.73;1.67;;;14.50;99.90;;;;;;5024945;28;20320;-28
2022/11/06 10:42:54;;;;;;;4.30;1.70;;;14.50;99.90;;;;;;5008729;28;20727;-28
2022/11/06 10:45:22;;;;;;;5.20;1.60;;;14.50;99.90;;;;;;5008576;28;20271;-29
2022/11/06 10:48:05;;;;;;;4.80;1.60;;;14.50;99.90;;;;;;5023626;28;20236;-29
2022/11/06 10:51:09;;;;;;;4.83;1.67;;;14.50;99.90;;;;;;5011848;28;20224;-29
2022/11/06 10:53:56;;;;;;;7.93;1.80;;;14.60;99.90;;;;;;5006262;28;20209;-29
2022/11/06 10:56:42;;;;;;;4.73;1.90;;;14.50;99.90;;;;;;5016295;28;20201;-28
2022/11/06 10:59:09;;;;;;;6.63;1.70;;;14.60;99.90;;;;;;5008203;28;20215;-29
2022/11/06 11:01:37;;;;;;;4.40;1.60;;;14.60;99.90;;;;;;5020037;28;20201;-29
2022/11/06 11:04:05;;;;;;;4.60;1.40;;;14.60;99.90;;;;;;5030967;28;20205;-28
2022/11/06 11:06:32;;;;;;;5.47;1.50;;;14.60;99.90;;;;;;5023226;28;20201;-29
2022/11/06 11:09:00;;;;;;;5.87;1.60;;;14.70;99.90;;;;;;5024677;28;20684;-28
2022/11/06 11:11:28;;;;;;;5.90;1.50;;;14.70;99.90;;;;;;5009588;28;20558;-29
2022/11/06 11:13:55;;;;;;;5.67;1.37;;;14.70;99.90;;;;;;5008264;28;21130;-28
2022/11/06 11:16:27;;;;;;;5.03;1.63;;;14.70;99.90;;;;;;5009974;28;20228;-29
2022/11/06 11:19:12;;;;;;;5.37;1.40;;;14.80;99.90;;;;;;5020653;28;20212;-29
2022/11/06 11:21:55;;;;;;;4.03;1.70;;;14.70;99.90;;;;;;5018280;28;20743;-29
2022/11/06 11:24:22;;;;;;;4.73;1.60;;;14.80;99.90;;;;;;5010005;28;20673;-29
2022/11/06 11:26:53;;;;;;;4.47;1.50;;;14.80;99.90;;;;;;5015812;28;20212;-28
2022/11/06 11:29:30;;;;;;;3.93;1.63;;;14.80;99.90;;;;;;5007634;28;20201;-29
2022/11/06 11:32:04;;;;;;;4.50;1.50;;;14.80;99.90;;;;;;5034728;28;20548;-28
2022/11/06 11:34:36;;;;;;;2.40;1.20;;;14.90;99.90;;;;;;5022611;28;20327;-28
2022/11/06 11:37:20;;;;;;;5.53;1.63;;;15.00;99.90;;;;;;5014521;28;20693;-29
2022/11/06 11:39:47;;;;;;;4.17;1.53;;;15.00;99.90;;;;;;5024349;28;20961;-28
2022/11/06 11:42:30;;;;;;;3.30;1.27;;;15.00;99.90;;;;;;5025700;28;20215;-28
2022/11/06 11:45:14;;;;;;;3.67;1.23;;;15.00;99.90;;;;;;5026177;28;20674;-30
2022/11/06 11:47:45;;;;;;;4.07;1.47;;;15.00;99.90;;;;;;5021153;28;20266;-28
2022/11/06 11:50:18;;;;;;;7.10;1.60;;;15.00;99.90;;;;;;5024764;28;20663;-30
2022/11/06 11:52:48;;;;;;;3.70;1.33;;;14.90;99.90;;;;;;5010444;28;20346;-30
2022/11/06 11:55:22;;;;;;;5.43;1.50;;;14.90;99.90;;;;;;5018827;28;20220;-30
2022/11/06 11:57:51;;;;;;;5.20;1.50;;;14.90;99.90;;;;;;5009098;28;20237;-30
2022/11/06 12:00:22;;;;;;;9.00;1.60;;;14.90;99.90;;;;;;5023089;28;20200;-30
2022/11/06 12:02:59;;;;;;;5.03;1.43;;;14.80;99.90;;;;;;5025295;28;20251;-30
2022/11/06 12:05:37;;;;;;;6.27;1.30;;;14.80;99.90;;;;;;5024261;28;20196;-30
2022/11/06 12:08:11;;;;;;;6.60;1.37;;;14.80;99.90;;;;;;5022118;28;20217;-30
2022/11/06 12:10:41;;;;;;;4.37;1.40;;;14.80;99.90;;;;;;5021901;28;20566;-30
2022/11/06 12:13:20;;;;;;;6.40;1.60;;;14.70;99.90;;;;;;5020032;28;20347;-30
2022/11/06 12:16:04;;;;;;;6.13;1.57;;;14.70;99.90;;;;;;5015812;28;20224;-30
2022/11/06 12:18:52;;;;;;;5.50;1.40;;;14.70;99.90;;;;;;5008918;28;20228;-30
2022/11/06 12:21:38;;;;;;;6.07;1.60;;;14.60;99.90;;;;;;5011867;28;20539;-30
2022/11/06 12:24:17;;;;;;;5.93;1.67;;;14.60;99.90;;;;;;5026239;28;20211;-30
2022/11/06 12:26:57;;;;;;;4.13;1.23;;;14.60;99.90;;;;;;5010245;28;20208;-30
2022/11/06 12:29:35;;;;;;;4.27;1.53;;;14.50;99.90;;;;;;5015343;28;20288;-30
2022/11/06 12:32:07;;;;;;;4.60;1.50;;;14.50;99.90;;;;;;5023253;28;20218;-30
2022/11/06 12:34:51;;;;;;;7.50;1.40;;;14.50;99.90;;;;;;5026411;28;20292;-30
2022/11/06 12:37:34;;;;;;;4.90;1.50;;;14.40;99.90;;;;;;5006504;28;20202;-30
2022/11/06 12:40:19;;;;;;;11.10;1.97;;;14.40;99.90;;;;;;5012973;28;20627;-30
2022/11/06 12:43:13;;;;;;;4.73;1.40;;;14.30;99.90;;;;;;5022656;28;20197;-28
2022/11/06 12:45:59;;;;;;;7.27;2.57;;;14.30;99.90;;;;;;5020371;28;20312;-29
2022/11/06 12:48:44;;;;;;;4.97;1.70;;;14.30;99.90;;;;;;5011811;28;20232;-29
2022/11/06 12:51:48;;;;;;;5.43;1.73;;;14.20;99.90;;;;;;5024310;28;20314;-29
2022/11/06 12:54:21;;;;;;;2.10;1.40;;;14.20;99.90;;;;;;5026727;28;20205;-29
2022/11/06 12:57:03;;;;;;;3.83;1.50;;;14.20;99.90;;;;;;5010690;28;20272;-29
2022/11/06 12:59:44;;;;;;;6.60;1.87;;;14.20;99.90;;;;;;5012226;28;20593;-29
2022/11/06 13:02:34;;;;;;;3.63;1.57;;;14.10;99.90;;;;;;5021632;28;20291;-29
2022/11/06 13:05:25;;;;;;;5.23;2.03;;;14.10;99.90;;;;;;5005923;28;20233;-29
2022/11/06 13:08:04;;;;;;;3.93;1.60;;;14.00;99.90;;;;;;5006293;28;20209;-29
2022/11/06 13:10:40;;;;;;;5.03;1.50;;;14.00;99.90;;;;;;5010437;28;20535;-29
2022/11/06 13:13:18;;;;;;;4.73;1.67;;;14.00;99.90;;;;;;5009154;28;20645;-29
2022/11/06 13:16:25;;;;;;;2.80;1.50;;;14.00;99.90;;;;;;5005698;28;20583;-29
2022/11/06 13:19:13;;;;;;;3.37;1.27;;;13.90;99.90;;;;;;5004347;28;20715;-29
2022/11/06 13:22:09;;;;;;;2.13;1.30;;;13.90;99.90;;;;;;5005157;28;20206;-29
2022/11/06 13:24:36;;;;;;;2.93;1.27;;;13.80;99.90;;;;;;5018439;28;20212;-29
2022/11/06 13:27:24;;;;;;;4.87;1.63;;;13.80;99.90;;;;;;5027519;28;20209;-29
2022/11/06 13:29:58;;;;;;;4.07;1.33;;;13.80;99.90;;;;;;5027408;28;20196;-29
2022/11/06 13:32:27;;;;;;;4.33;1.30;;;13.70;99.90;;;;;;5026354;28;20672;-29